createdAt,value
2023-05-10T00:00:12.029Z,12.40
2023-05-10T00:02:38.947Z,12.40
2023-05-10T00:05:06.087Z,12.40
2023-05-10T00:07:32.674Z,12.40
2023-05-10T00:09:59.167Z,12.40
2023-05-10T00:12:25.767Z,12.40
2023-05-10T00:14:52.288Z,12.40
2023-05-10T00:17:18.914Z,12.40
2023-05-10T00:19:45.556Z,12.50
2023-05-10T00:22:12.160Z,12.40
2023-05-10T00:24:38.725Z,12.40
2023-05-10T00:27:05.346Z,12.40
2023-05-10T00:29:32.706Z,12.40
2023-05-10T00:31:59.418Z,12.40
2023-05-10T00:34:26.384Z,12.40
2023-05-10T00:36:52.914Z,12.40
2023-05-10T00:39:19.436Z,12.40
2023-05-10T00:41:46.143Z,12.40
2023-05-10T00:44:12.651Z,12.40
2023-05-10T00:46:39.473Z,12.50
2023-05-10T00:49:06.316Z,12.40
2023-05-10T00:51:32.932Z,12.40
2023-05-10T00:53:59.493Z,12.40
2023-05-10T00:56:26.409Z,12.40
2023-05-10T00:58:52.912Z,12.40
2023-05-10T01:01:20.207Z,12.40
2023-05-10T01:03:47.721Z,12.40
2023-05-10T01:06:14.267Z,12.40
2023-05-10T01:08:41.740Z,12.40
2023-05-10T01:11:08.418Z,12.40
2023-05-10T01:13:36.977Z,12.40
2023-05-10T01:16:04.294Z,12.40
2023-05-10T01:18:33.665Z,12.40
2023-05-10T01:21:34.048Z,12.40
2023-05-10T01:24:09.441Z,12.40
2023-05-10T01:26:36.032Z,12.40
2023-05-10T01:29:11.682Z,12.40
2023-05-10T01:31:56.685Z,12.40
2023-05-10T01:34:28.749Z,12.40
2023-05-10T01:36:58.303Z,12.40
2023-05-10T01:39:24.801Z,12.40
2023-05-10T01:42:08.577Z,12.40
2023-05-10T01:44:38.415Z,12.40
2023-05-10T01:47:12.376Z,12.30
2023-05-10T01:49:52.869Z,12.30
2023-05-10T01:52:20.717Z,12.30
2023-05-10T01:54:52.607Z,12.30
2023-05-10T01:57:21.453Z,12.30
2023-05-10T01:59:49.893Z,12.30
2023-05-10T02:02:18.110Z,12.30
2023-05-10T02:04:45.891Z,12.30
2023-05-10T02:07:12.884Z,12.30
2023-05-10T02:09:39.468Z,12.30
2023-05-10T02:12:07.296Z,12.30
2023-05-10T02:14:35.549Z,12.30
2023-05-10T02:17:03.346Z,12.20
2023-05-10T02:19:31.087Z,12.20
2023-05-10T02:21:58.341Z,12.20
2023-05-10T02:24:25.589Z,12.20
2023-05-10T02:26:54.497Z,12.20
2023-05-10T02:29:21.199Z,12.20
2023-05-10T02:31:48.262Z,12.20
2023-05-10T02:34:15.164Z,12.20
2023-05-10T02:36:42.616Z,12.20
2023-05-10T02:39:13.476Z,12.20
2023-05-10T02:41:41.696Z,12.20
2023-05-10T02:44:10.045Z,12.20
2023-05-10T02:46:43.070Z,12.20
2023-05-10T02:49:09.819Z,12.20
2023-05-10T02:51:38.277Z,12.20
2023-05-10T02:54:16.094Z,12.20
2023-05-10T02:56:45.602Z,12.20
2023-05-10T02:59:12.070Z,12.20
2023-05-10T03:01:38.764Z,12.10
2023-05-10T03:04:05.368Z,12.20
2023-05-10T03:06:32.244Z,12.10
2023-05-10T03:08:58.832Z,12.10
2023-05-10T03:11:33.100Z,12.20
2023-05-10T03:14:02.354Z,12.20
2023-05-10T03:16:30.686Z,12.20
2023-05-10T03:19:00.258Z,12.20
2023-05-10T03:21:27.588Z,12.20
2023-05-10T03:24:03.999Z,12.30
2023-05-10T03:26:30.758Z,12.30
2023-05-10T03:28:59.818Z,12.30
2023-05-10T03:31:26.459Z,12.30
2023-05-10T03:33:53.195Z,12.30
2023-05-10T03:36:20.135Z,12.30
2023-05-10T03:38:46.659Z,12.30
2023-05-10T03:41:13.172Z,12.30
2023-05-10T03:43:39.652Z,12.30
2023-05-10T03:46:06.482Z,12.30
2023-05-10T03:48:33.362Z,12.30
2023-05-10T03:50:59.931Z,12.30
2023-05-10T03:53:26.468Z,12.40
2023-05-10T03:55:52.968Z,12.40
2023-05-10T03:58:19.599Z,12.40
2023-05-10T04:00:46.359Z,12.40
2023-05-10T04:03:13.417Z,12.40
2023-05-10T04:05:40.260Z,12.40
2023-05-10T04:08:07.094Z,12.40
2023-05-10T04:10:33.596Z,12.40
2023-05-10T04:13:00.203Z,12.40
2023-05-10T04:15:26.720Z,12.50
2023-05-10T04:17:53.431Z,12.50
2023-05-10T04:20:20.054Z,12.50
2023-05-10T04:22:46.750Z,12.50
2023-05-10T04:25:13.242Z,12.50
2023-05-10T04:27:39.921Z,12.50
2023-05-10T04:30:06.833Z,12.50
2023-05-10T04:32:33.518Z,12.50
2023-05-10T04:35:00.189Z,12.50
2023-05-10T04:37:26.706Z,12.50
2023-05-10T04:39:53.259Z,12.60
2023-05-10T04:42:19.784Z,12.50
2023-05-10T04:44:46.296Z,12.50
2023-05-10T04:47:14.106Z,12.60
2023-05-10T04:49:40.644Z,12.60
2023-05-10T04:52:07.179Z,12.60
2023-05-10T04:54:36.302Z,12.50
2023-05-10T04:57:02.884Z,12.60
2023-05-10T04:59:29.445Z,12.60
2023-05-10T05:01:56.164Z,12.70
2023-05-10T05:04:24.414Z,12.80
2023-05-10T05:06:53.658Z,12.80
2023-05-10T05:09:20.806Z,12.70
2023-05-10T05:11:47.388Z,12.80
2023-05-10T05:14:13.916Z,12.80
2023-05-10T05:16:40.630Z,12.80
2023-05-10T05:19:07.384Z,12.90
2023-05-10T05:21:33.974Z,12.90
2023-05-10T05:24:00.885Z,12.90
2023-05-10T05:26:27.542Z,12.90
2023-05-10T05:28:55.459Z,12.90
2023-05-10T05:31:22.354Z,13.00
2023-05-10T05:33:48.984Z,13.00
2023-05-10T05:36:15.624Z,13.00
2023-05-10T05:38:42.273Z,13.10
2023-05-10T05:41:08.848Z,13.10
2023-05-10T05:43:37.525Z,13.20
2023-05-10T05:46:05.364Z,13.30
2023-05-10T05:48:32.227Z,13.40
2023-05-10T05:50:58.871Z,13.30
2023-05-10T05:53:25.474Z,13.30
2023-05-10T05:55:55.301Z,13.30
2023-05-10T05:58:22.517Z,13.30
2023-05-10T06:00:49.355Z,13.40
2023-05-10T06:03:16.382Z,13.50
2023-05-10T06:05:43.052Z,13.60
2023-05-10T06:08:09.595Z,13.70
2023-05-10T06:10:36.305Z,13.90
2023-05-10T06:13:02.962Z,14.00
2023-05-10T06:15:29.712Z,14.20
2023-05-10T06:17:56.514Z,14.30
2023-05-10T06:20:23.221Z,14.40
2023-05-10T06:22:49.858Z,14.30
2023-05-10T06:25:18.974Z,14.50
2023-05-10T06:27:49.058Z,14.60
2023-05-10T06:30:17.668Z,14.60
2023-05-10T06:32:44.985Z,14.60
2023-05-10T06:35:11.669Z,14.50
2023-05-10T06:37:39.287Z,14.40
2023-05-10T06:40:06.621Z,14.20
2023-05-10T06:42:33.105Z,14.10
2023-05-10T06:44:59.815Z,13.90
2023-05-10T06:47:39.224Z,13.90
2023-05-10T06:50:06.373Z,13.90
2023-05-10T06:52:32.907Z,13.90
2023-05-10T06:54:59.433Z,13.90
2023-05-10T06:59:57.194Z,13.90
2023-05-10T07:02:23.854Z,13.90
2023-05-10T07:04:51.061Z,13.80
2023-05-10T07:07:17.789Z,14.00
2023-05-10T07:09:44.357Z,14.10
2023-05-10T07:12:13.408Z,14.10
2023-05-10T07:14:41.820Z,14.10
2023-05-10T07:17:08.337Z,14.20
2023-05-10T07:19:35.052Z,14.10
2023-05-10T07:22:01.968Z,14.00
2023-05-10T07:24:28.526Z,13.80
2023-05-10T07:26:55.049Z,13.70
2023-05-10T07:29:21.586Z,13.70
2023-05-10T07:31:48.163Z,13.60
2023-05-10T07:34:14.818Z,13.60
2023-05-10T07:36:41.382Z,13.60
2023-05-10T07:39:08.418Z,13.50
2023-05-10T07:41:35.895Z,13.50
2023-05-10T07:44:02.780Z,13.60
2023-05-10T07:46:29.550Z,13.70
2023-05-10T07:48:56.410Z,13.60
2023-05-10T07:51:23.235Z,13.70
2023-05-10T07:53:50.155Z,13.70
2023-05-10T07:56:28.336Z,13.60
2023-05-10T07:58:55.354Z,13.60
2023-05-10T08:01:22.270Z,13.60
2023-05-10T08:03:52.059Z,13.60
2023-05-10T08:06:19.025Z,13.70
2023-05-10T08:08:52.472Z,13.70
2023-05-10T08:11:19.173Z,13.70
2023-05-10T08:13:46.145Z,13.90
2023-05-10T08:16:12.787Z,14.10
2023-05-10T08:18:39.865Z,14.40
2023-05-10T08:21:06.725Z,14.40
2023-05-10T08:23:33.573Z,14.70
2023-05-10T08:26:00.425Z,14.80
2023-05-10T08:28:27.078Z,15.00
2023-05-10T08:30:53.697Z,15.10
2023-05-10T08:33:20.553Z,15.40
2023-05-10T08:35:47.155Z,15.60
2023-05-10T08:38:13.930Z,15.30
2023-05-10T08:40:42.609Z,15.10
2023-05-10T08:43:10.722Z,14.90
2023-05-10T08:45:38.966Z,14.70
2023-05-10T08:48:09.419Z,14.50
2023-05-10T08:50:40.268Z,14.50
2023-05-10T08:53:10.717Z,14.70
2023-05-10T08:55:39.284Z,14.70
2023-05-10T08:58:06.490Z,14.70
2023-05-10T09:00:33.459Z,14.80
2023-05-10T09:03:00.688Z,14.80
2023-05-10T09:05:27.784Z,14.60
2023-05-10T09:07:54.476Z,14.20
2023-05-10T09:10:21.525Z,14.00
2023-05-10T09:12:49.362Z,13.80
2023-05-10T09:15:16.495Z,13.70
2023-05-10T09:17:47.177Z,13.70
2023-05-10T09:20:13.725Z,13.70
2023-05-10T09:22:41.107Z,13.70
2023-05-10T09:25:12.058Z,13.70
2023-05-10T09:27:39.674Z,13.80
2023-05-10T09:30:07.415Z,13.80
2023-05-10T09:32:41.133Z,13.70
2023-05-10T09:35:11.414Z,13.60
2023-05-10T09:37:40.836Z,13.60
2023-05-10T09:40:08.462Z,13.70
2023-05-10T09:42:35.606Z,13.70
2023-05-10T09:45:03.221Z,14.00
2023-05-10T09:47:38.182Z,14.00
2023-05-10T09:50:05.601Z,14.20
2023-05-10T09:52:46.315Z,14.20
2023-05-10T09:55:13.116Z,14.40
2023-05-10T09:57:46.493Z,14.60
2023-05-10T10:00:17.576Z,14.90
2023-05-10T10:02:45.719Z,15.40
2023-05-10T10:05:12.732Z,15.50
2023-05-10T10:07:39.422Z,15.60
2023-05-10T10:10:06.739Z,16.00
2023-05-10T10:12:33.667Z,16.30
2023-05-10T10:15:00.522Z,15.90
2023-05-10T10:17:28.671Z,16.10
2023-05-10T10:19:56.407Z,16.00
2023-05-10T10:22:22.942Z,15.80
2023-05-10T10:24:49.537Z,15.50
2023-05-10T10:27:36.377Z,15.10
2023-05-10T10:30:07.498Z,15.10
2023-05-10T10:32:55.106Z,15.20
2023-05-10T10:35:22.217Z,15.20
2023-05-10T10:37:51.163Z,15.10
2023-05-10T10:40:24.702Z,14.80
2023-05-10T10:42:51.484Z,14.60
2023-05-10T10:45:18.375Z,14.90
2023-05-10T10:47:46.099Z,15.40
2023-05-10T10:50:16.969Z,16.20
2023-05-10T10:52:44.164Z,17.20
2023-05-10T10:55:12.098Z,17.90
2023-05-10T10:57:41.902Z,17.60
2023-05-10T11:00:23.434Z,17.00
2023-05-10T11:02:54.160Z,16.60
2023-05-10T11:05:35.913Z,16.50
2023-05-10T11:08:22.962Z,16.60
2023-05-10T11:10:52.803Z,16.80
2023-05-10T11:13:27.907Z,17.40
2023-05-10T11:15:54.506Z,17.20
2023-05-10T11:18:22.107Z,17.10
2023-05-10T11:20:52.354Z,17.30
2023-05-10T11:23:19.619Z,17.40
2023-05-10T11:25:46.757Z,17.90
2023-05-10T11:28:17.511Z,18.00
2023-05-10T11:30:44.530Z,17.70
2023-05-10T11:33:15.987Z,17.80
2023-05-10T11:35:43.619Z,18.10
2023-05-10T11:38:11.623Z,17.60
2023-05-10T11:40:38.620Z,18.00
2023-05-10T11:43:06.454Z,17.80
2023-05-10T11:45:33.517Z,18.00
2023-05-10T11:48:00.785Z,18.30
2023-05-10T11:50:27.495Z,18.50
2023-05-10T11:52:57.572Z,18.70
2023-05-10T11:55:25.091Z,18.90
2023-05-10T11:57:55.437Z,18.50
2023-05-10T12:00:22.150Z,18.30
2023-05-10T12:02:49.509Z,18.20
2023-05-10T12:05:16.234Z,17.70
2023-05-10T12:07:42.803Z,17.50
2023-05-10T12:10:10.376Z,16.90
2023-05-10T12:12:42.691Z,16.80
2023-05-10T12:15:13.595Z,16.60
2023-05-10T12:17:43.317Z,16.80
2023-05-10T12:20:16.994Z,17.10
2023-05-10T12:22:47.684Z,17.10
2023-05-10T12:25:16.541Z,16.80
2023-05-10T12:27:49.137Z,16.60
2023-05-10T12:30:19.803Z,16.80
2023-05-10T12:32:46.393Z,16.90
2023-05-10T12:35:12.934Z,16.50
2023-05-10T12:37:40.171Z,16.50
2023-05-10T12:40:07.569Z,16.40
2023-05-10T12:42:34.325Z,16.60
2023-05-10T12:45:00.883Z,16.60
2023-05-10T12:47:27.471Z,16.90
2023-05-10T12:49:54.136Z,17.00
2023-05-10T12:52:20.924Z,17.10
2023-05-10T12:54:47.713Z,17.30
2023-05-10T12:57:14.555Z,17.40
2023-05-10T12:59:41.090Z,16.90
2023-05-10T13:02:07.972Z,16.40
2023-05-10T13:04:34.541Z,16.00
2023-05-10T13:07:01.122Z,15.40
2023-05-10T13:09:29.428Z,15.20
2023-05-10T13:11:56.252Z,15.10
2023-05-10T13:14:22.829Z,14.90
2023-05-10T13:16:49.519Z,15.00
2023-05-10T13:19:17.055Z,15.20
2023-05-10T13:21:45.162Z,15.50
2023-05-10T13:24:11.932Z,15.90
2023-05-10T13:26:40.548Z,16.40
2023-05-10T13:29:07.179Z,16.70
2023-05-10T13:31:34.358Z,17.10
2023-05-10T13:34:01.004Z,17.20
2023-05-10T13:36:27.514Z,17.00
2023-05-10T13:38:54.118Z,17.00
2023-05-10T13:41:20.659Z,16.90
2023-05-10T13:43:49.493Z,16.60
2023-05-10T13:46:16.039Z,16.40
2023-05-10T13:48:42.586Z,16.20
2023-05-10T13:51:09.299Z,16.10
2023-05-10T13:53:35.754Z,15.90
2023-05-10T13:56:03.733Z,15.80
2023-05-10T13:58:30.426Z,15.80
2023-05-10T14:00:57.014Z,15.70
2023-05-10T14:03:23.735Z,15.50
2023-05-10T14:05:50.295Z,15.50
2023-05-10T14:08:16.901Z,15.40
2023-05-10T14:10:43.444Z,15.40
2023-05-10T14:13:09.948Z,15.30
2023-05-10T14:15:36.460Z,15.10
2023-05-10T14:18:03.072Z,15.00
2023-05-10T14:20:29.888Z,14.80
2023-05-10T14:22:56.500Z,14.60
2023-05-10T14:25:22.976Z,14.50
2023-05-10T14:27:49.561Z,14.30
2023-05-10T14:30:16.087Z,14.30
2023-05-10T14:32:42.901Z,14.40
2023-05-10T14:35:12.171Z,14.40
2023-05-10T14:37:39.654Z,14.50
2023-05-10T14:40:08.682Z,14.50
2023-05-10T14:42:35.233Z,14.60
2023-05-10T14:45:01.720Z,14.80
2023-05-10T14:47:28.364Z,15.00
2023-05-10T14:49:55.007Z,15.40
2023-05-10T14:52:21.551Z,15.50
2023-05-10T14:54:48.460Z,15.70
2023-05-10T14:57:16.165Z,15.50
2023-05-10T14:59:43.012Z,15.30
2023-05-10T15:02:11.338Z,15.10
2023-05-10T15:04:38.642Z,15.20
2023-05-10T15:07:05.641Z,15.30
2023-05-10T15:09:32.266Z,15.90
2023-05-10T15:11:58.756Z,16.90
2023-05-10T15:14:25.544Z,17.60
2023-05-10T15:16:52.083Z,17.80
2023-05-10T15:19:18.621Z,17.30
2023-05-10T15:21:45.571Z,16.90
2023-05-10T15:24:12.146Z,16.60
2023-05-10T15:26:38.699Z,16.20
2023-05-10T15:29:05.276Z,15.70
2023-05-10T15:31:32.034Z,15.30
2023-05-10T15:34:01.592Z,15.10
2023-05-10T15:36:28.122Z,15.10
2023-05-10T15:38:54.757Z,15.00
2023-05-10T15:41:21.751Z,14.80
2023-05-10T15:43:48.280Z,14.90
2023-05-10T15:46:14.798Z,14.80
2023-05-10T15:51:26.866Z,14.70
2023-05-10T15:54:05.950Z,14.60
2023-05-10T15:56:36.926Z,14.70
2023-05-10T15:59:03.794Z,14.80
2023-05-10T16:01:31.269Z,14.90
2023-05-10T16:03:57.908Z,15.00
2023-05-10T16:06:24.430Z,14.90
2023-05-10T16:08:51.996Z,14.90
2023-05-10T16:11:20.062Z,14.70
2023-05-10T16:13:46.676Z,14.70
2023-05-10T16:16:13.360Z,14.70
2023-05-10T16:18:40.084Z,14.80
2023-05-10T16:21:06.698Z,14.90
2023-05-10T16:23:33.239Z,14.90
2023-05-10T16:25:59.838Z,15.00
2023-05-10T16:28:26.416Z,14.90
2023-05-10T16:30:53.079Z,14.90
2023-05-10T16:33:19.581Z,14.90
2023-05-10T16:35:46.326Z,14.90
2023-05-10T16:38:12.893Z,15.00
2023-05-10T16:40:39.783Z,15.10
2023-05-10T16:43:06.487Z,15.20
2023-05-10T16:45:33.125Z,15.20
2023-05-10T16:47:59.938Z,15.20
2023-05-10T16:50:26.654Z,15.20
2023-05-10T16:52:53.183Z,15.40
2023-05-10T16:55:19.867Z,15.50
2023-05-10T16:57:46.440Z,15.60
2023-05-10T17:00:13.383Z,15.60
2023-05-10T17:02:39.995Z,15.40
2023-05-10T17:05:06.832Z,15.40
2023-05-10T17:07:33.420Z,15.40
2023-05-10T17:10:00.137Z,15.20
2023-05-10T17:12:26.783Z,15.20
2023-05-10T17:14:53.425Z,15.10
2023-05-10T17:17:20.025Z,15.10
2023-05-10T17:19:46.592Z,15.10
2023-05-10T17:22:13.509Z,15.10
2023-05-10T17:24:40.269Z,15.10
2023-05-10T17:27:06.944Z,15.20
2023-05-10T17:29:33.570Z,15.10
2023-05-10T17:32:00.213Z,15.20
2023-05-10T17:34:26.778Z,15.20
2023-05-10T17:36:53.615Z,15.10
2023-05-10T17:39:20.382Z,15.20
2023-05-10T17:41:47.040Z,15.10
2023-05-10T17:44:13.771Z,15.10
2023-05-10T17:46:40.532Z,15.00
2023-05-10T17:49:07.145Z,14.90
2023-05-10T17:51:33.795Z,14.90
2023-05-10T17:54:00.432Z,14.90
2023-05-10T17:56:26.984Z,14.80
2023-05-10T17:58:53.589Z,14.90
2023-05-10T18:01:20.262Z,14.80
2023-05-10T18:03:49.327Z,14.90
2023-05-10T18:06:15.923Z,14.90
2023-05-10T18:08:42.508Z,15.00
2023-05-10T18:11:09.550Z,14.80
2023-05-10T18:13:36.215Z,14.80
2023-05-10T18:16:04.927Z,14.90
2023-05-10T18:18:31.942Z,14.90
2023-05-10T18:20:58.541Z,15.00
2023-05-10T18:23:25.186Z,15.00
2023-05-10T18:25:51.913Z,15.10
2023-05-10T18:28:18.558Z,15.00
2023-05-10T18:30:45.458Z,14.90
2023-05-10T18:33:12.668Z,14.70
2023-05-10T18:35:40.182Z,14.60
2023-05-10T18:38:07.770Z,14.60
2023-05-10T18:40:34.389Z,14.40
2023-05-10T18:43:01.171Z,14.40
2023-05-10T18:45:27.777Z,14.30
2023-05-10T18:47:54.406Z,14.30
2023-05-10T18:50:21.074Z,14.30
2023-05-10T18:52:47.692Z,14.20
2023-05-10T18:55:14.543Z,14.20
2023-05-10T18:57:41.785Z,14.20
2023-05-10T19:00:10.199Z,14.20
2023-05-10T19:02:37.243Z,14.10
2023-05-10T19:05:03.901Z,14.10
2023-05-10T19:07:30.466Z,14.00
2023-05-10T19:09:57.010Z,14.00
2023-05-10T19:12:23.621Z,14.00
2023-05-10T19:14:50.382Z,13.90
2023-05-10T19:17:19.002Z,13.80
2023-05-10T19:19:45.689Z,13.70
2023-05-10T19:22:13.476Z,13.70
2023-05-10T19:24:40.053Z,13.70
2023-05-10T19:27:06.683Z,13.60
2023-05-10T19:29:33.222Z,13.50
2023-05-10T19:32:00.754Z,13.50
2023-05-10T19:34:28.165Z,13.50
2023-05-10T19:36:54.798Z,13.50
2023-05-10T19:39:21.580Z,13.40
2023-05-10T19:41:49.233Z,13.40
2023-05-10T19:44:16.008Z,13.30
2023-05-10T19:46:42.685Z,13.30
2023-05-10T19:49:09.315Z,13.30
2023-05-10T19:51:35.898Z,13.20
2023-05-10T19:54:02.524Z,13.20
2023-05-10T19:56:29.685Z,13.20
2023-05-10T19:58:56.236Z,13.10
2023-05-10T20:01:22.927Z,13.10
2023-05-10T20:03:49.630Z,13.10
2023-05-10T20:06:16.306Z,13.10
2023-05-10T20:08:42.886Z,13.10
2023-05-10T20:11:09.512Z,13.10
2023-05-10T20:13:36.122Z,13.10
2023-05-10T20:16:04.942Z,13.00
2023-05-10T20:18:31.718Z,13.00
2023-05-10T20:20:59.545Z,13.00
2023-05-10T20:23:26.283Z,13.00
2023-05-10T20:25:54.807Z,12.90
2023-05-10T20:28:25.358Z,12.90
2023-05-10T20:30:53.216Z,12.90
2023-05-10T20:33:20.136Z,12.90
2023-05-10T20:35:46.730Z,12.80
2023-05-10T20:38:13.236Z,12.80
2023-05-10T20:40:40.085Z,12.80
2023-05-10T20:43:06.717Z,12.80
2023-05-10T20:45:33.421Z,12.90
2023-05-10T20:48:00.247Z,12.90
2023-05-10T20:50:26.996Z,12.90
2023-05-10T20:52:53.644Z,12.90
2023-05-10T20:55:20.533Z,12.90
2023-05-10T20:57:47.383Z,12.90
2023-05-10T21:00:14.619Z,12.90
2023-05-10T21:02:44.710Z,12.90
2023-05-10T21:05:11.526Z,12.90
2023-05-10T21:07:39.221Z,12.80
2023-05-10T21:10:08.458Z,12.90
2023-05-10T21:12:35.037Z,12.80
2023-05-10T21:15:04.013Z,12.80
2023-05-10T21:17:30.729Z,12.80
2023-05-10T21:19:57.405Z,12.80
2023-05-10T21:22:24.055Z,12.70
2023-05-10T21:24:50.619Z,12.70
2023-05-10T21:27:17.232Z,12.60
2023-05-10T21:29:43.845Z,12.70
2023-05-10T21:32:10.537Z,12.70
2023-05-10T21:34:37.235Z,12.60
2023-05-10T21:37:03.850Z,12.60
2023-05-10T21:39:30.428Z,12.50
2023-05-10T21:41:57.062Z,12.40
2023-05-10T21:44:23.657Z,12.40
2023-05-10T21:46:50.624Z,12.50
2023-05-10T21:49:17.244Z,12.40
2023-05-10T21:51:44.046Z,12.40
2023-05-10T21:54:10.819Z,12.40
2023-05-10T21:56:37.566Z,12.40
2023-05-10T21:59:04.629Z,12.40
2023-05-10T22:01:31.336Z,12.40
2023-05-10T22:03:58.021Z,12.40
2023-05-10T22:06:24.562Z,12.40
2023-05-10T22:08:51.145Z,12.40
2023-05-10T22:11:17.790Z,12.40
2023-05-10T22:13:44.428Z,12.40
2023-05-10T22:16:11.051Z,12.40
2023-05-10T22:18:37.678Z,12.40
2023-05-10T22:21:04.392Z,12.40
2023-05-10T22:23:31.245Z,12.40
2023-05-10T22:26:03.807Z,12.40
2023-05-10T22:28:30.459Z,12.40
2023-05-10T22:30:57.038Z,12.40
2023-05-10T22:33:23.722Z,12.40
2023-05-10T22:35:50.401Z,12.40
2023-05-10T22:38:16.989Z,12.40
2023-05-10T22:40:43.637Z,12.30
2023-05-10T22:43:10.416Z,12.30
2023-05-10T22:45:37.033Z,12.20
2023-05-10T22:48:05.081Z,12.30
2023-05-10T22:50:31.835Z,12.20
2023-05-10T22:52:58.481Z,12.20
2023-05-10T22:55:25.006Z,12.20
2023-05-10T22:57:52.047Z,12.10
2023-05-10T23:00:18.897Z,12.10
2023-05-10T23:02:45.703Z,12.00
2023-05-10T23:05:13.061Z,12.00
2023-05-10T23:07:39.703Z,12.00
2023-05-10T23:10:06.393Z,11.90
2023-05-10T23:12:33.793Z,11.90
2023-05-10T23:15:00.397Z,11.80
2023-05-10T23:17:26.999Z,11.70
2023-05-10T23:19:53.547Z,11.70
2023-05-10T23:22:20.228Z,11.60
2023-05-10T23:24:46.809Z,11.60
2023-05-10T23:27:14.576Z,11.60
2023-05-10T23:29:41.489Z,11.60
2023-05-10T23:32:08.267Z,11.50
2023-05-10T23:34:34.962Z,11.50
2023-05-10T23:37:01.815Z,11.50
2023-05-10T23:39:28.441Z,11.40
2023-05-10T23:41:55.106Z,11.50
2023-05-10T23:44:21.610Z,11.40
2023-05-10T23:46:48.202Z,11.40
2023-05-10T23:49:14.774Z,11.40
2023-05-10T23:51:41.382Z,11.40
2023-05-10T23:54:08.587Z,11.50
2023-05-10T23:56:35.314Z,11.40
2023-05-10T23:59:01.866Z,11.40
